CA-0073 weather

CLOSED Calgary (Children's Hospital) Heliport
Alberta, Canada

Public forecast

Using degrees Celsius for public forecast. Weather courtesy of forecast.io.

Closest aviation weather report (METAR) to Calgary (Children's Hospital) Heliport

Closest report is Calgary International Airport, 6.1 nm (11.2 km) NE. Retrieved 2019/12/10 23:00 UTC (44 minutes ago):

CYYC 102300Z 15006KT 40SM FEW020 FEW090 FEW150 BKN210 M04/M07 A2996 RMK SC1AC1AC2CI5 SC TR AC TR SLP214

Closest aviation forecast (TAF) to Calgary (Children's Hospital) Heliport

Closest forecast is Calgary International Airport, 6.1 nm (11.2 km) NE. Retrieved 2019/12/10 21:42 UTC (2 hours ago):

TAF TAF CYYC 102038Z 1021/1118 VRB03KT P6SM SCT015 BKN080 TEMPO 1021/1023 BKN015 OVC080 FM102300 VRB03KT P6SM BKN012 BKN080 TEMPO 1023/1102 5SM -SN BR BKN008 OVC080 BECMG 1023/1101 12008KT FM110200 16010KT P6SM SCT006 SCT120 TEMPO 1102/1110 2SM -SN BR OVC006 BECMG 1106/1108 VRB03KT FM111000 VRB03KT P6SM SCT006 BKN080 TEMPO 1110/1118 5SM -SN BR BKN006 OVC060 RMK NXT FCST BY 110000Z